Khuzdar Airport


Codes: OPKH/KDD
Name: Khuzdar Airport
City: Khuzdar
Country: Pakistan
Elevation: 4012 ft.
Wikipedia:

Photos at Khuzdar Airport


   Photos courtesy of SpottingLog. You can add your own sightings and photos by signing up for a free trial today.



No photos found.

Weather at Khuzdar Airport


Time (UTC)DescriptionTempratureWindCloud coverageVisibilityPressureHumidity
16-Jun-2024 03:00Broken Clouds28°C4 mph, NW64%10000m1005hPa35%
16-Jun-2024 06:00Scattered Clouds33°C7 mph, NE36%10000m1004hPa23%
16-Jun-2024 09:00Few Clouds38°C13 mph, E22%10000m1001hPa13%
16-Jun-2024 12:00Scattered Clouds36°C16 mph, SE43%10000m1001hPa17%
16-Jun-2024 15:00Light Rain29°C9 mph, SE100%10000m1005hPa34%
16-Jun-2024 18:00Overcast Clouds29°C0 mph, NW100%10000m1004hPa37%
16-Jun-2024 21:00Overcast Clouds28°C4 mph, NW92%10000m1004hPa38%
17-Jun-2024 00:00Broken Clouds27°C4 mph, NW72%10000m1004hPa37%
17-Jun-2024 03:00Scattered Clouds31°C2 mph, NE28%10000m1005hPa23%
17-Jun-2024 06:00Few Clouds36°C9 mph, NE15%10000m1004hPa17%
17-Jun-2024 09:00Clear Sky39°C18 mph, E2%10000m1002hPa13%
17-Jun-2024 12:00Few Clouds38°C20 mph, E18%10000m1001hPa15%
17-Jun-2024 15:00Broken Clouds34°C9 mph, SE66%10000m1002hPa25%
17-Jun-2024 18:00Scattered Clouds31°C4 mph, SW35%10000m1003hPa34%
17-Jun-2024 21:00Clear Sky28°C7 mph, W0%10000m1003hPa60%
18-Jun-2024 00:00Clear Sky26°C4 mph, W0%10000m1004hPa69%
18-Jun-2024 03:00Clear Sky31°C4 mph, NW0%10000m1004hPa24%
18-Jun-2024 06:00Clear Sky38°C11 mph, NW0%10000m1002hPa7%
18-Jun-2024 09:00Clear Sky40°C13 mph, NW0%10000m999hPa6%
18-Jun-2024 12:00Clear Sky39°C22 mph, W0%10000m998hPa6%
18-Jun-2024 15:00Clear Sky35°C16 mph, W0%10000m999hPa7%
18-Jun-2024 18:00Clear Sky31°C7 mph, W0%10000m1001hPa8%
18-Jun-2024 21:00Clear Sky28°C7 mph, W0%10000m1001hPa11%
19-Jun-2024 00:00Clear Sky27°C7 mph, W0%10000m1000hPa14%
19-Jun-2024 03:00Clear Sky31°C9 mph, NW0%10000m1001hPa12%
19-Jun-2024 06:00Clear Sky36°C7 mph, NW0%10000m998hPa9%
19-Jun-2024 09:00Clear Sky39°C9 mph, SW0%10000m996hPa6%
19-Jun-2024 12:00Clear Sky40°C9 mph, S0%10000m994hPa6%
19-Jun-2024 15:00Clear Sky34°C4 mph, E0%10000m996hPa15%
19-Jun-2024 18:00Clear Sky32°C2 mph, S0%10000m997hPa19%
19-Jun-2024 21:00Clear Sky29°C4 mph, W0%10000m997hPa25%
20-Jun-2024 00:00Clear Sky28°C4 mph, W0%10000m998hPa22%
20-Jun-2024 03:00Clear Sky32°C2 mph, NW0%10000m999hPa12%
20-Jun-2024 06:00Clear Sky37°C7 mph, E0%10000m997hPa10%
20-Jun-2024 09:00Clear Sky39°C16 mph, SE2%10000m995hPa13%
20-Jun-2024 12:00Few Clouds37°C18 mph, SE22%10000m994hPa20%
20-Jun-2024 15:00Scattered Clouds34°C11 mph, SE47%10000m997hPa27%
20-Jun-2024 18:00Few Clouds32°C9 mph, S22%10000m999hPa33%
20-Jun-2024 21:00Clear Sky28°C4 mph, W0%10000m999hPa44%
21-Jun-2024 00:00Clear Sky26°C2 mph, NW0%10000m999hPa44%